createdAt,value
2022-09-20T00:01:29.572Z,9.94
2022-09-20T00:03:58.374Z,9.87
2022-09-20T00:06:30.743Z,9.86
2022-09-20T00:08:57.932Z,9.92
2022-09-20T00:11:29.878Z,9.96
2022-09-20T00:13:59.313Z,9.95
2022-09-20T00:16:35.782Z,9.92
2022-09-20T00:19:06.859Z,9.93
2022-09-20T00:21:36.385Z,9.99
2022-09-20T00:24:07.145Z,10.02
2022-09-20T00:26:33.847Z,10.01
2022-09-20T00:29:02.632Z,10.01
2022-09-20T00:31:32.335Z,10.07
2022-09-20T00:34:18.100Z,10.15
2022-09-20T00:36:45.318Z,10.17
2022-09-20T00:39:19.524Z,10.19
2022-09-20T00:41:54.827Z,10.20
2022-09-20T00:44:48.086Z,10.24
2022-09-20T00:47:30.974Z,10.28
2022-09-20T00:50:12.673Z,10.32
2022-09-20T00:52:44.139Z,10.32
2022-09-20T00:55:13.848Z,10.30
2022-09-20T00:57:56.994Z,10.29
2022-09-20T01:00:29.884Z,10.30
2022-09-20T01:09:41.392Z,10.25
2022-09-20T01:12:16.539Z,10.25
2022-09-20T01:15:02.697Z,10.18
2022-09-20T01:21:04.799Z,10.11
2022-09-20T01:23:52.073Z,10.06
2022-09-20T01:26:40.126Z,10.01
2022-09-20T01:29:17.301Z,9.99
2022-09-20T01:31:50.186Z,10.02
2022-09-20T01:34:34.287Z,10.01
2022-09-20T01:37:19.597Z,9.99
2022-09-20T01:39:58.716Z,9.97
2022-09-20T01:42:36.277Z,9.92
2022-09-20T01:45:22.754Z,9.92
2022-09-20T01:48:13.637Z,9.89
2022-09-20T01:51:00.478Z,9.89
2022-09-20T01:53:57.965Z,9.91
2022-09-20T01:56:43.212Z,9.90
2022-09-20T01:59:24.515Z,9.90
2022-09-20T02:01:54.181Z,9.86
2022-09-20T02:04:52.646Z,9.82
2022-09-20T02:07:28.293Z,9.86
2022-09-20T02:10:34.798Z,9.84
2022-09-20T02:13:06.943Z,9.79
2022-09-20T02:16:08.688Z,9.77
2022-09-20T02:18:35.446Z,9.76
2022-09-20T02:21:05.401Z,9.76
2022-09-20T02:23:58.049Z,9.71
2022-09-20T02:26:40.341Z,9.68
2022-09-20T02:29:07.160Z,9.64
2022-09-20T02:32:01.806Z,9.68
2022-09-20T02:34:56.235Z,9.70
2022-09-20T02:37:31.939Z,9.66
2022-09-20T02:40:17.230Z,9.72
2022-09-20T02:42:55.139Z,9.72
2022-09-20T02:45:52.178Z,9.64
2022-09-20T02:48:26.889Z,9.62
2022-09-20T02:51:07.010Z,9.54
2022-09-20T02:53:57.706Z,9.53
2022-09-20T02:56:37.963Z,9.61
2022-09-20T02:59:16.504Z,9.70
2022-09-20T03:02:15.329Z,9.70
2022-09-20T03:04:42.610Z,9.57
2022-09-20T03:07:25.971Z,9.57
2022-09-20T03:10:07.499Z,9.63
2022-09-20T03:12:39.988Z,9.59
2022-09-20T03:15:25.332Z,9.55
2022-09-20T03:18:01.066Z,9.61
2022-09-20T03:20:33.520Z,9.67
2022-09-20T03:23:15.970Z,9.59
2022-09-20T03:26:21.480Z,9.61
2022-09-20T03:29:33.615Z,9.63
2022-09-20T03:32:19.512Z,9.59
2022-09-20T03:35:08.387Z,9.57
2022-09-20T03:38:09.010Z,9.55
2022-09-20T03:40:59.790Z,9.51
2022-09-20T03:43:52.403Z,9.49
2022-09-20T03:46:29.590Z,9.43
2022-09-20T03:49:05.699Z,9.44
2022-09-20T03:51:45.321Z,9.50
2022-09-20T03:54:37.172Z,9.52
2022-09-20T03:57:19.481Z,9.45
2022-09-20T04:00:08.288Z,9.43
2022-09-20T04:03:03.123Z,9.51
2022-09-20T04:05:53.922Z,9.50
2022-09-20T04:08:48.114Z,9.52
2022-09-20T04:11:30.118Z,9.56
2022-09-20T04:14:11.300Z,9.53
2022-09-20T04:16:46.126Z,9.52
2022-09-20T04:19:17.899Z,9.48
2022-09-20T04:21:53.870Z,9.51
2022-09-20T04:24:39.153Z,9.50
2022-09-20T04:27:25.554Z,9.50
2022-09-20T04:29:58.234Z,9.49
2022-09-20T04:33:07.407Z,9.51
2022-09-20T04:36:04.323Z,9.57
2022-09-20T04:38:31.464Z,9.62
2022-09-20T04:41:16.730Z,9.64
2022-09-20T04:44:06.501Z,9.64
2022-09-20T04:46:56.174Z,9.64
2022-09-20T04:49:38.017Z,9.65
2022-09-20T04:52:10.386Z,9.66
2022-09-20T04:55:12.234Z,9.62
2022-09-20T04:57:53.910Z,9.65
2022-09-20T05:00:24.136Z,9.66
2022-09-20T05:03:25.965Z,9.60
2022-09-20T05:06:12.332Z,9.65
2022-09-20T05:08:58.033Z,9.71
2022-09-20T05:11:47.262Z,9.66
2022-09-20T05:14:34.854Z,9.60
2022-09-20T05:17:32.485Z,9.55
2022-09-20T05:20:24.131Z,9.42
2022-09-20T05:23:04.602Z,9.33
2022-09-20T05:25:40.457Z,9.37
2022-09-20T05:28:19.379Z,9.41
2022-09-20T05:30:58.242Z,9.40
2022-09-20T05:33:52.410Z,9.35
2022-09-20T05:36:43.998Z,9.32
2022-09-20T05:39:22.597Z,9.33
2022-09-20T05:42:01.757Z,9.36
2022-09-20T05:44:37.252Z,9.37
2022-09-20T05:47:31.559Z,9.30
2022-09-20T05:50:28.432Z,9.22
2022-09-20T05:53:21.592Z,9.17
2022-09-20T05:56:02.876Z,9.15
2022-09-20T05:59:03.201Z,9.15
2022-09-20T06:02:10.385Z,9.13
2022-09-20T06:04:50.400Z,9.11
2022-09-20T06:07:28.730Z,9.08
2022-09-20T06:10:24.686Z,9.19
2022-09-20T06:13:20.697Z,9.29
2022-09-20T06:16:05.746Z,9.41
2022-09-20T06:18:44.388Z,9.47
2022-09-20T06:21:25.087Z,9.46
2022-09-20T06:23:58.420Z,9.47
2022-09-20T06:26:29.540Z,9.52
2022-09-20T06:29:02.236Z,9.60
2022-09-20T06:31:29.154Z,9.63
2022-09-20T06:34:10.076Z,9.67
2022-09-20T06:36:58.125Z,9.69
2022-09-20T06:39:46.228Z,9.76
2022-09-20T06:42:12.862Z,9.75
2022-09-20T06:44:43.264Z,9.75
2022-09-20T06:47:15.154Z,9.60
2022-09-20T06:49:46.822Z,9.60
2022-09-20T06:52:22.186Z,9.67
2022-09-20T06:54:51.879Z,9.70
2022-09-20T06:57:23.561Z,9.75
2022-09-20T06:59:50.178Z,9.80
2022-09-20T07:02:16.873Z,9.86
2022-09-20T07:04:44.636Z,9.95
2022-09-20T07:07:17.383Z,10.06
2022-09-20T07:09:43.977Z,10.11
2022-09-20T07:12:11.734Z,10.15
2022-09-20T07:14:39.145Z,10.21
2022-09-20T07:17:06.633Z,10.23
2022-09-20T07:19:33.961Z,10.13
2022-09-20T07:22:00.610Z,10.09
2022-09-20T07:24:27.239Z,10.13
2022-09-20T07:26:59.713Z,10.20
2022-09-20T07:29:27.383Z,10.25
2022-09-20T07:31:54.634Z,10.25
2022-09-20T07:34:21.344Z,10.24
2022-09-20T07:36:48.436Z,10.23
2022-09-20T07:39:15.328Z,10.20
2022-09-20T07:41:43.434Z,10.18
2022-09-20T07:44:24.419Z,10.25
2022-09-20T07:46:52.756Z,10.29
2022-09-20T07:49:20.464Z,10.28
2022-09-20T07:51:47.602Z,10.33
2022-09-20T07:54:14.331Z,10.42
2022-09-20T07:56:41.609Z,10.53
2022-09-20T07:59:10.263Z,10.65
2022-09-20T08:01:37.754Z,10.81
2022-09-20T08:04:08.950Z,10.96
2022-09-20T08:06:43.676Z,10.97
2022-09-20T08:09:11.580Z,10.95
2022-09-20T08:11:39.592Z,10.90
2022-09-20T08:14:09.065Z,10.83
2022-09-20T08:16:47.422Z,10.82
2022-09-20T08:19:22.929Z,10.82
2022-09-20T08:21:53.946Z,10.82
2022-09-20T08:24:20.534Z,10.77
2022-09-20T08:26:48.440Z,10.78
2022-09-20T08:29:15.524Z,10.80
2022-09-20T08:31:42.528Z,10.88
2022-09-20T08:34:12.379Z,10.96
2022-09-20T08:36:41.928Z,11.08
2022-09-20T08:41:58.297Z,11.38
2022-09-20T08:44:35.973Z,11.44
2022-09-20T08:47:22.656Z,11.52
2022-09-20T08:49:56.734Z,11.51
2022-09-20T08:52:37.209Z,11.56
2022-09-20T08:55:16.704Z,11.69
2022-09-20T08:57:44.690Z,11.83
2022-09-20T09:00:18.513Z,11.91
2022-09-20T09:02:45.954Z,11.98
2022-09-20T09:05:33.161Z,12.09
2022-09-20T09:08:04.614Z,12.14
2022-09-20T09:10:45.904Z,12.21
2022-09-20T09:13:22.418Z,12.29
2022-09-20T09:15:55.678Z,12.43
2022-09-20T09:18:31.650Z,12.53
2022-09-20T09:20:59.284Z,12.53
2022-09-20T09:23:27.624Z,12.47
2022-09-20T09:25:55.909Z,12.42
2022-09-20T09:28:29.363Z,12.38
2022-09-20T09:31:12.667Z,12.39
2022-09-20T09:33:45.244Z,12.40
2022-09-20T09:36:25.399Z,12.38
2022-09-20T09:39:16.632Z,12.41
2022-09-20T09:41:44.514Z,12.35
2022-09-20T09:44:27.703Z,12.39
2022-09-20T09:46:57.024Z,12.42
2022-09-20T09:49:25.056Z,12.47
2022-09-20T09:52:13.278Z,12.57
2022-09-20T09:55:00.123Z,12.65
2022-09-20T09:57:53.965Z,12.66
2022-09-20T10:00:22.973Z,12.62
2022-09-20T10:03:17.642Z,12.58
2022-09-20T10:06:09.260Z,12.51
2022-09-20T10:08:42.080Z,12.54
2022-09-20T10:11:24.036Z,12.52
2022-09-20T10:14:22.519Z,12.61
2022-09-20T10:17:23.067Z,12.73
2022-09-20T10:20:04.473Z,12.88
2022-09-20T10:23:34.392Z,13.10
2022-09-20T10:25:55.076Z,13.28
2022-09-20T10:28:28.162Z,13.34
2022-09-20T10:31:27.603Z,13.36
2022-09-20T10:34:09.745Z,13.28
2022-09-20T10:36:52.161Z,13.15
2022-09-20T10:39:27.417Z,13.15
2022-09-20T10:42:15.730Z,13.13
2022-09-20T10:45:42.040Z,13.14
2022-09-20T10:48:26.912Z,13.19
2022-09-20T10:51:35.427Z,13.19
2022-09-20T10:54:38.190Z,13.16
2022-09-20T10:57:22.725Z,13.07
2022-09-20T10:59:55.974Z,13.00
2022-09-20T11:02:31.438Z,13.01
2022-09-20T11:05:21.038Z,13.04
2022-09-20T11:08:13.980Z,13.08
2022-09-20T11:10:55.138Z,13.16
2022-09-20T11:13:38.699Z,13.22
2022-09-20T11:16:17.439Z,13.27
2022-09-20T11:19:13.269Z,13.27
2022-09-20T11:22:05.875Z,13.21
2022-09-20T11:24:44.065Z,13.13
2022-09-20T11:27:19.931Z,13.07
2022-09-20T11:29:55.578Z,13.06
2022-09-20T11:32:25.679Z,13.03
2022-09-20T11:34:57.011Z,13.02
2022-09-20T11:37:30.269Z,12.99
2022-09-20T11:40:01.850Z,12.92
2022-09-20T11:42:33.272Z,12.94
2022-09-20T11:44:59.966Z,12.97
2022-09-20T11:47:56.037Z,13.05
2022-09-20T11:50:43.163Z,13.25
2022-09-20T11:53:26.267Z,13.56
2022-09-20T11:56:07.832Z,13.79
2022-09-20T11:58:48.308Z,13.94
2022-09-20T12:01:41.482Z,14.18
2022-09-20T12:04:32.696Z,14.41
2022-09-20T12:07:17.953Z,14.76
2022-09-20T12:09:52.038Z,15.22
2022-09-20T12:12:24.803Z,15.63
2022-09-20T12:14:59.785Z,15.70
2022-09-20T12:17:44.490Z,15.28
2022-09-20T12:20:44.815Z,15.10
2022-09-20T12:23:45.218Z,14.93
2022-09-20T12:26:37.733Z,14.87
2022-09-20T12:29:32.978Z,14.77
2022-09-20T12:32:23.049Z,14.58
2022-09-20T12:34:49.836Z,14.38
2022-09-20T12:37:19.284Z,14.25
2022-09-20T12:39:53.487Z,14.05
2022-09-20T12:42:21.727Z,13.93
2022-09-20T12:44:51.190Z,13.78
2022-09-20T12:47:24.249Z,13.84
2022-09-20T12:50:17.549Z,14.09
2022-09-20T12:53:02.586Z,14.46
2022-09-20T12:55:46.393Z,14.86
2022-09-20T12:58:15.695Z,15.17
2022-09-20T13:00:50.244Z,15.43
2022-09-20T13:03:44.123Z,15.82
2022-09-20T13:06:14.887Z,16.13
2022-09-20T13:08:57.155Z,16.34
2022-09-20T13:11:48.968Z,16.60
2022-09-20T13:14:22.009Z,16.66
2022-09-20T13:17:01.177Z,16.78
2022-09-20T13:19:34.411Z,17.01
2022-09-20T13:22:00.958Z,17.20
2022-09-20T13:24:33.608Z,17.44
2022-09-20T13:27:06.592Z,17.73
2022-09-20T13:29:38.870Z,17.79
2022-09-20T13:32:25.231Z,17.74
2022-09-20T13:35:09.891Z,17.68
2022-09-20T13:37:42.978Z,17.19
2022-09-20T13:40:32.060Z,17.11
2022-09-20T13:43:22.150Z,17.02
2022-09-20T13:45:53.990Z,17.02
2022-09-20T13:48:25.480Z,16.94
2022-09-20T13:50:53.901Z,16.73
2022-09-20T13:53:40.675Z,16.77
2022-09-20T13:56:25.885Z,16.78
2022-09-20T13:58:53.560Z,16.77
2022-09-20T14:01:31.162Z,16.66
2022-09-20T14:04:05.720Z,16.65
2022-09-20T14:06:32.912Z,16.66
2022-09-20T14:09:08.393Z,16.65
2022-09-20T14:11:37.810Z,16.51
2022-09-20T14:14:08.037Z,16.35
2022-09-20T14:16:46.742Z,16.33
2022-09-20T14:19:20.244Z,16.23
2022-09-20T14:21:48.237Z,16.24
2022-09-20T14:24:17.994Z,16.11
2022-09-20T14:27:02.312Z,15.93
2022-09-20T14:29:34.685Z,15.89
2022-09-20T14:32:07.625Z,15.92
2022-09-20T14:34:40.076Z,15.91
2022-09-20T14:37:36.904Z,15.91
2022-09-20T14:40:17.398Z,15.91
2022-09-20T14:42:47.138Z,15.92
2022-09-20T14:45:24.749Z,15.96
2022-09-20T14:48:10.700Z,15.79
2022-09-20T14:50:43.990Z,15.66
2022-09-20T14:53:13.571Z,15.64
2022-09-20T14:55:54.754Z,15.60
2022-09-20T14:58:21.420Z,15.59
2022-09-20T15:00:54.158Z,15.63
2022-09-20T15:03:31.178Z,15.58
2022-09-20T15:05:58.717Z,15.53
2022-09-20T15:08:26.007Z,15.43
2022-09-20T15:10:52.655Z,15.28
2022-09-20T15:13:19.462Z,15.21
2022-09-20T15:15:51.179Z,15.12
2022-09-20T15:18:26.735Z,15.06
2022-09-20T15:20:54.931Z,14.97
2022-09-20T15:23:22.124Z,14.82
2022-09-20T15:25:54.454Z,14.62
2022-09-20T15:28:21.204Z,14.58
2022-09-20T15:30:52.733Z,14.56
2022-09-20T15:33:21.518Z,14.49
2022-09-20T15:35:48.712Z,14.49
2022-09-20T15:38:18.503Z,14.52
2022-09-20T15:40:48.157Z,14.53
2022-09-20T15:43:21.923Z,14.49
2022-09-20T15:45:51.605Z,14.49
2022-09-20T15:48:22.975Z,14.48
2022-09-20T15:51:03.511Z,14.45
2022-09-20T15:53:32.157Z,14.45
2022-09-20T15:56:02.791Z,14.41
2022-09-20T15:58:36.260Z,14.32
2022-09-20T16:01:08.379Z,14.19
2022-09-20T16:03:36.670Z,14.08
2022-09-20T16:06:06.278Z,14.07
2022-09-20T16:08:34.839Z,14.04
2022-09-20T16:11:01.881Z,14.03
2022-09-20T16:13:28.893Z,13.97
2022-09-20T16:16:00.863Z,13.79
2022-09-20T16:18:47.835Z,13.63
2022-09-20T16:21:17.624Z,13.49
2022-09-20T16:23:54.861Z,13.26
2022-09-20T16:26:23.480Z,13.12
2022-09-20T16:28:50.859Z,13.10
2022-09-20T16:31:40.832Z,13.07
2022-09-20T16:34:07.579Z,12.90
2022-09-20T16:36:34.451Z,12.80
2022-09-20T16:39:01.284Z,12.77
2022-09-20T16:41:28.989Z,12.64
2022-09-20T16:43:56.143Z,12.52
2022-09-20T16:46:27.402Z,12.45
2022-09-20T16:48:55.579Z,12.47
2022-09-20T16:51:26.132Z,12.42
2022-09-20T16:53:56.136Z,12.30
2022-09-20T16:56:29.624Z,12.23
2022-09-20T16:58:56.945Z,12.24
2022-09-20T17:01:23.591Z,12.28
2022-09-20T17:03:50.489Z,12.35
2022-09-20T17:06:17.206Z,12.30
2022-09-20T17:08:46.886Z,12.16
2022-09-20T17:11:16.658Z,11.97
2022-09-20T17:13:45.282Z,11.82
2022-09-20T17:16:14.630Z,11.81
2022-09-20T17:18:42.825Z,11.71
2022-09-20T17:21:13.818Z,11.58
2022-09-20T17:23:41.500Z,11.58
2022-09-20T17:26:23.087Z,11.59
2022-09-20T17:28:56.548Z,11.50
2022-09-20T17:31:29.009Z,11.42
2022-09-20T17:34:00.541Z,11.46
2022-09-20T17:36:32.262Z,11.45
2022-09-20T17:39:04.382Z,11.48
2022-09-20T17:41:33.857Z,11.52
2022-09-20T17:44:02.772Z,11.53
2022-09-20T17:46:34.004Z,11.52
2022-09-20T17:49:03.002Z,11.49
2022-09-20T17:51:32.080Z,11.45
2022-09-20T17:53:59.499Z,11.45
2022-09-20T17:56:30.982Z,11.46
2022-09-20T17:58:59.659Z,11.48
2022-09-20T18:01:27.607Z,11.49
2022-09-20T18:03:56.391Z,11.52
2022-09-20T18:06:28.832Z,11.57
2022-09-20T18:09:04.492Z,11.62
2022-09-20T18:11:40.730Z,11.59
2022-09-20T18:14:10.344Z,11.53
2022-09-20T18:16:38.824Z,11.46
2022-09-20T18:19:07.195Z,11.42
2022-09-20T18:21:36.114Z,11.27
2022-09-20T18:24:05.968Z,11.21
2022-09-20T18:26:32.945Z,11.21
2022-09-20T18:29:05.772Z,11.25
2022-09-20T18:31:38.651Z,11.23
2022-09-20T18:34:07.594Z,11.12
2022-09-20T18:36:38.448Z,11.00
2022-09-20T18:39:06.099Z,10.90
2022-09-20T18:41:37.694Z,10.76
2022-09-20T18:44:07.150Z,10.71
2022-09-20T18:46:37.950Z,10.67
2022-09-20T18:49:06.136Z,10.56
2022-09-20T18:51:38.570Z,10.45
2022-09-20T18:54:06.139Z,10.31
2022-09-20T18:56:35.003Z,10.24
2022-09-20T18:59:23.439Z,10.17
2022-09-20T19:02:17.560Z,10.09
2022-09-20T19:04:56.845Z,10.06
2022-09-20T19:07:54.050Z,10.03
2022-09-20T19:10:43.962Z,10.00
2022-09-20T19:13:35.887Z,10.00
2022-09-20T19:16:18.608Z,9.96
2022-09-20T19:19:14.944Z,9.96
2022-09-20T19:21:58.568Z,9.99
2022-09-20T19:24:33.798Z,10.00
2022-09-20T19:27:00.622Z,10.00
2022-09-20T19:29:28.520Z,9.96
2022-09-20T19:31:57.583Z,9.98
2022-09-20T19:34:26.840Z,9.98
2022-09-20T19:37:18.711Z,9.99
2022-09-20T19:40:04.363Z,10.03
2022-09-20T19:42:47.658Z,10.02
2022-09-20T19:45:49.071Z,10.01
2022-09-20T19:48:34.072Z,10.04
2022-09-20T19:51:04.545Z,10.07
2022-09-20T19:53:31.512Z,10.09
2022-09-20T19:56:08.037Z,10.13
2022-09-20T19:58:35.539Z,10.14
2022-09-20T20:01:02.308Z,10.15
2022-09-20T20:03:31.350Z,10.12
2022-09-20T20:06:17.879Z,10.08
2022-09-20T20:08:59.841Z,10.09
2022-09-20T20:11:41.468Z,9.97
2022-09-20T20:14:36.491Z,9.85
2022-09-20T20:17:21.382Z,9.84
2022-09-20T20:20:04.066Z,9.77
2022-09-20T20:22:56.893Z,9.76
2022-09-20T20:25:47.732Z,9.68
2022-09-20T20:28:14.450Z,9.68
2022-09-20T20:30:41.138Z,9.72
2022-09-20T20:33:08.138Z,9.72
2022-09-20T20:35:34.867Z,9.72
2022-09-20T20:38:01.484Z,9.73
2022-09-20T20:40:28.441Z,9.78
2022-09-20T20:43:02.079Z,9.75
2022-09-20T20:45:29.650Z,9.79
2022-09-20T20:47:58.611Z,9.78
2022-09-20T20:50:27.101Z,9.73
2022-09-20T20:52:55.677Z,9.62
2022-09-20T20:55:23.116Z,9.57
2022-09-20T20:57:58.279Z,9.55
2022-09-20T21:00:28.729Z,9.53
2022-09-20T21:03:01.960Z,9.51
2022-09-20T21:05:29.196Z,9.46
2022-09-20T21:07:56.407Z,9.46
2022-09-20T21:10:23.760Z,9.48
2022-09-20T21:12:54.170Z,9.55
2022-09-20T21:15:21.503Z,9.58
2022-09-20T21:17:55.001Z,9.55
2022-09-20T21:20:22.506Z,9.51
2022-09-20T21:22:49.105Z,9.49
2022-09-20T21:25:15.786Z,9.43
2022-09-20T21:27:42.732Z,9.41
2022-09-20T21:30:09.914Z,9.37
2022-09-20T21:32:36.665Z,9.27
2022-09-20T21:35:03.520Z,9.17
2022-09-20T21:37:30.559Z,9.11
2022-09-20T21:39:57.178Z,9.12
2022-09-20T21:42:25.507Z,9.14
2022-09-20T21:44:53.029Z,9.17
2022-09-20T21:47:20.617Z,9.17
2022-09-20T21:49:47.720Z,9.14
2022-09-20T21:52:14.431Z,9.15
2022-09-20T21:54:41.099Z,9.16
2022-09-20T21:57:08.008Z,9.10
2022-09-20T21:59:34.667Z,9.07
2022-09-20T22:02:01.277Z,9.05
2022-09-20T22:04:29.207Z,9.06
2022-09-20T22:06:55.810Z,9.10
2022-09-20T22:09:24.203Z,9.11
2022-09-20T22:11:50.847Z,9.09
2022-09-20T22:14:19.735Z,9.07
2022-09-20T22:16:48.556Z,9.04
2022-09-20T22:19:17.236Z,9.01
2022-09-20T22:21:46.043Z,9.00
2022-09-20T22:24:14.585Z,9.02
2022-09-20T22:26:44.040Z,9.03
2022-09-20T22:29:11.506Z,9.03
2022-09-20T22:31:44.897Z,8.99
2022-09-20T22:34:15.498Z,8.95
2022-09-20T22:36:42.591Z,8.94
2022-09-20T22:39:11.064Z,8.89
2022-09-20T22:41:39.450Z,8.87
2022-09-20T22:44:06.290Z,8.82
2022-09-20T22:46:33.757Z,8.81
2022-09-20T22:49:00.804Z,8.78
2022-09-20T22:51:31.111Z,8.80
2022-09-20T22:53:57.748Z,8.83
2022-09-20T22:56:26.472Z,8.91
2022-09-20T22:58:55.306Z,8.97
2022-09-20T23:01:30.728Z,9.00
2022-09-20T23:04:00.947Z,9.00
2022-09-20T23:06:32.157Z,9.03
2022-09-20T23:09:03.366Z,9.13
2022-09-20T23:11:30.674Z,9.19
2022-09-20T23:14:00.882Z,9.25
2022-09-20T23:16:29.941Z,9.28
2022-09-20T23:18:58.813Z,9.30
2022-09-20T23:21:25.696Z,9.35
2022-09-20T23:23:54.770Z,9.41
2022-09-20T23:26:21.696Z,9.44
2022-09-20T23:28:57.474Z,9.38
2022-09-20T23:31:24.829Z,9.32
2022-09-20T23:33:59.832Z,9.28
2022-09-20T23:36:29.287Z,9.26
2022-09-20T23:38:59.855Z,9.24
2022-09-20T23:41:27.898Z,9.22
2022-09-20T23:43:55.333Z,9.23
2022-09-20T23:46:23.413Z,9.29
2022-09-20T23:48:50.869Z,9.31
2022-09-20T23:51:20.020Z,9.34
2022-09-20T23:53:46.779Z,9.38
2022-09-20T23:56:14.296Z,9.43
2022-09-20T23:58:43.832Z,9.49
